Time;durP1;ratioP1;P1;durP2;ratioP2;P2;SDS_P1;SDS_P2;PMS_P1;PMS_P2;Temp;Humidity;BMP_temperature;BMP_pressure;BME280_temperature;BME280_humidity;BME280_pressure;Samples;Min_cycle;Max_cycle;Signal;HPM_P1;HPM_P2
2023/04/16 00:01:13;;;;;;;2.42;0.95;;;22.40;99.90;;;;;;5093235;27;20319;-76
2023/04/16 00:03:44;;;;;;;1.95;0.82;;;22.50;99.90;;;;;;5099014;28;20198;-76
2023/04/16 00:06:16;;;;;;;2.05;0.88;;;22.40;99.90;;;;;;5096630;28;20233;-75
2023/04/16 00:08:47;;;;;;;1.55;0.80;;;22.50;99.90;;;;;;5093962;27;20190;-76
2023/04/16 00:11:18;;;;;;;2.10;0.80;;;22.50;99.90;;;;;;5092968;27;20209;-75
2023/04/16 00:13:49;;;;;;;3.72;0.85;;;22.50;99.90;;;;;;5093872;27;20198;-75
2023/04/16 00:16:22;;;;;;;2.22;0.73;;;22.50;99.90;;;;;;5094804;28;20199;-75
2023/04/16 00:18:53;;;;;;;2.80;0.70;;;22.50;99.90;;;;;;5101384;27;20205;-76
2023/04/16 00:21:25;;;;;;;1.85;0.90;;;22.50;99.90;;;;;;5095433;27;20228;-76
2023/04/16 00:23:56;;;;;;;1.15;0.85;;;22.60;99.90;;;;;;5098014;28;20241;-75
2023/04/16 00:26:27;;;;;;;2.55;0.70;;;22.70;99.90;;;;;;5100631;27;20213;-75
2023/04/16 00:28:58;;;;;;;2.10;0.85;;;22.70;99.90;;;;;;5122158;27;20576;-75
2023/04/16 00:31:36;;;;;;;3.55;0.85;;;22.70;99.90;;;;;;5128695;28;20220;-76
2023/04/16 00:34:07;;;;;;;2.40;0.70;;;22.70;99.90;;;;;;5110303;28;20315;-76
2023/04/16 00:36:38;;;;;;;1.17;0.82;;;22.80;99.90;;;;;;5131753;28;20204;-76
2023/04/16 00:39:09;;;;;;;2.13;0.73;;;22.80;99.90;;;;;;5134355;27;20198;-75
2023/04/16 00:41:41;;;;;;;3.75;1.08;;;22.80;99.90;;;;;;5111523;28;20593;-76
2023/04/16 00:44:12;;;;;;;1.20;0.90;;;22.90;99.90;;;;;;5117788;28;20205;-75
2023/04/16 00:46:46;;;;;;;2.22;0.90;;;22.90;99.90;;;;;;5129773;27;20194;-76
2023/04/16 00:49:17;;;;;;;1.08;0.80;;;23.00;99.90;;;;;;5127679;27;20687;-75
2023/04/16 00:51:48;;;;;;;4.65;1.02;;;23.10;99.90;;;;;;5128874;28;20202;-77
2023/04/16 00:54:19;;;;;;;3.00;0.90;;;23.10;99.90;;;;;;5119320;27;20198;-77
2023/04/16 00:56:50;;;;;;;1.65;0.82;;;23.10;99.90;;;;;;5133895;27;20198;-75
2023/04/16 00:59:21;;;;;;;3.85;0.95;;;23.10;99.90;;;;;;5126606;27;20195;-76
2023/04/16 01:01:54;;;;;;;4.38;1.00;;;23.10;99.90;;;;;;5113802;27;20222;-75
2023/04/16 01:04:25;;;;;;;1.25;1.00;;;23.10;99.90;;;;;;5122498;27;20200;-76
2023/04/16 01:06:56;;;;;;;1.67;0.88;;;23.10;99.90;;;;;;5126559;27;20190;-76
2023/04/16 01:09:28;;;;;;;1.17;0.70;;;23.20;99.90;;;;;;5129042;27;20190;-75
2023/04/16 01:11:59;;;;;;;0.90;0.70;;;23.20;99.90;;;;;;5134491;27;20198;-76
2023/04/16 01:14:34;;;;;;;1.52;0.80;;;23.20;99.90;;;;;;5127785;27;20198;-75
2023/04/16 01:17:07;;;;;;;1.88;0.90;;;23.20;99.90;;;;;;5127884;27;20197;-76
2023/04/16 01:19:38;;;;;;;1.23;0.80;;;23.20;99.90;;;;;;5131105;27;20206;-76
2023/04/16 01:22:12;;;;;;;2.00;1.02;;;23.20;99.90;;;;;;5130258;27;20225;-75
2023/04/16 01:24:43;;;;;;;1.55;0.88;;;23.30;99.90;;;;;;5120742;27;20222;-76
2023/04/16 01:27:14;;;;;;;2.20;0.98;;;23.40;99.90;;;;;;5131272;27;20194;-75
2023/04/16 01:29:45;;;;;;;4.80;1.10;;;23.40;99.90;;;;;;5132375;27;20271;-77
2023/04/16 01:32:16;;;;;;;4.00;1.20;;;23.50;99.90;;;;;;5131968;27;20201;-75
2023/04/16 01:34:49;;;;;;;2.53;1.10;;;23.60;99.90;;;;;;5129695;27;20193;-77
2023/04/16 01:37:22;;;;;;;1.48;0.90;;;23.60;99.90;;;;;;5124282;27;20664;-77
2023/04/16 01:39:53;;;;;;;2.80;0.95;;;23.70;99.90;;;;;;5129722;27;20204;-77
2023/04/16 01:42:24;;;;;;;1.60;0.90;;;23.70;99.90;;;;;;5129704;27;20233;-76
2023/04/16 01:44:55;;;;;;;1.45;0.77;;;23.70;99.90;;;;;;5129817;27;20483;-76
2023/04/16 01:47:26;;;;;;;5.22;0.82;;;23.80;99.90;;;;;;5124042;27;20210;-76
2023/04/16 01:49:57;;;;;;;2.40;1.02;;;23.90;99.90;;;;;;5123516;27;20591;-75
2023/04/16 01:52:30;;;;;;;3.22;0.82;;;23.90;99.90;;;;;;5132547;27;20205;-76
2023/04/16 01:55:01;;;;;;;1.80;0.82;;;24.00;99.90;;;;;;5127548;27;20229;-76
2023/04/16 01:57:34;;;;;;;3.03;0.98;;;24.00;99.90;;;;;;5128176;27;20190;-76
2023/04/16 02:00:05;;;;;;;2.35;0.90;;;24.00;99.90;;;;;;5131347;27;20204;-76
2023/04/16 02:02:37;;;;;;;3.47;1.00;;;24.00;99.90;;;;;;5129717;27;20225;-76
2023/04/16 02:05:08;;;;;;;2.22;0.77;;;24.10;99.90;;;;;;5130498;27;20206;-76
2023/04/16 02:07:41;;;;;;;2.88;0.90;;;24.20;99.90;;;;;;5131509;27;20679;-76
2023/04/16 02:10:12;;;;;;;3.65;1.20;;;24.20;99.90;;;;;;5130229;27;20205;-76
2023/04/16 02:12:44;;;;;;;3.53;0.90;;;24.30;99.90;;;;;;5131385;27;20197;-76
2023/04/16 02:15:16;;;;;;;1.25;0.80;;;24.30;99.90;;;;;;5127538;27;22126;-75
2023/04/16 02:17:47;;;;;;;1.48;1.00;;;24.40;99.90;;;;;;5122141;27;20671;-76
2023/04/16 02:20:18;;;;;;;5.70;1.08;;;24.50;99.90;;;;;;5128799;27;20194;-76
2023/04/16 02:22:51;;;;;;;2.80;1.00;;;24.50;99.90;;;;;;5126297;27;20567;-76
2023/04/16 02:25:23;;;;;;;2.03;1.13;;;24.50;99.90;;;;;;5118037;27;20226;-76
2023/04/16 02:27:54;;;;;;;4.65;1.20;;;24.60;99.90;;;;;;5131980;27;20212;-77
2023/04/16 02:30:25;;;;;;;3.33;1.10;;;24.60;99.90;;;;;;5131491;27;20194;-76
2023/04/16 02:32:56;;;;;;;1.88;0.80;;;24.70;99.90;;;;;;5119008;27;20206;-75
2023/04/16 02:35:27;;;;;;;4.30;1.20;;;24.70;99.90;;;;;;5128330;27;20202;-76
2023/04/16 02:38:00;;;;;;;3.05;0.95;;;24.70;99.90;;;;;;5127007;27;20201;-75
2023/04/16 02:40:31;;;;;;;1.83;1.00;;;24.70;99.90;;;;;;5131128;27;20201;-75
2023/04/16 02:43:03;;;;;;;1.60;0.90;;;24.70;99.90;;;;;;5130226;27;20557;-75
2023/04/16 02:45:34;;;;;;;1.45;0.95;;;24.60;99.90;;;;;;5131162;27;20258;-75
2023/04/16 02:48:06;;;;;;;3.30;1.17;;;24.60;99.90;;;;;;5130409;27;20213;-76
2023/04/16 02:50:39;;;;;;;4.20;1.05;;;24.60;99.90;;;;;;5125860;27;20237;-76
2023/04/16 02:53:14;;;;;;;2.17;1.00;;;24.60;99.90;;;;;;5126724;27;20190;-75
2023/04/16 02:55:51;;;;;;;1.63;0.82;;;24.70;99.90;;;;;;5114275;27;20197;-75
2023/04/16 02:58:22;;;;;;;2.65;1.10;;;24.80;99.90;;;;;;5123162;27;20202;-76
2023/04/16 03:00:54;;;;;;;1.77;0.98;;;24.80;99.90;;;;;;5113479;27;20244;-75
2023/04/16 03:03:25;;;;;;;0.90;0.82;;;24.80;99.90;;;;;;5116941;27;20186;-75
2023/04/16 03:05:56;;;;;;;3.08;1.10;;;24.80;99.90;;;;;;5124747;27;20591;-77
2023/04/16 03:08:29;;;;;;;2.30;0.98;;;24.90;99.90;;;;;;5130223;27;20202;-77
2023/04/16 03:11:00;;;;;;;0.70;0.70;;;24.90;99.90;;;;;;5128551;27;20194;-75
2023/04/16 03:13:32;;;;;;;2.30;0.98;;;24.90;99.90;;;;;;5124729;27;20197;-75
2023/04/16 03:16:03;;;;;;;2.67;1.20;;;24.90;99.90;;;;;;5121240;27;20198;-75
2023/04/16 03:18:34;;;;;;;3.85;1.17;;;24.80;99.90;;;;;;5118418;27;20194;-76
2023/04/16 03:21:05;;;;;;;6.00;1.10;;;24.80;99.90;;;;;;5095690;27;20218;-75
2023/04/16 03:23:40;;;;;;;5.60;1.23;;;24.80;99.90;;;;;;5094051;27;20205;-76
2023/04/16 03:26:11;;;;;;;5.22;1.35;;;24.80;99.90;;;;;;5092673;27;20194;-75
2023/04/16 03:28:42;;;;;;;2.83;1.30;;;24.70;99.90;;;;;;5096182;27;20194;-76
2023/04/16 03:31:13;;;;;;;3.25;1.40;;;24.70;99.90;;;;;;5093523;27;20214;-76
2023/04/16 03:33:44;;;;;;;3.13;1.55;;;24.60;99.90;;;;;;5093377;27;20190;-76
2023/04/16 03:36:15;;;;;;;3.50;1.88;;;24.70;99.90;;;;;;5092383;27;20201;-76
2023/04/16 03:38:48;;;;;;;2.92;1.60;;;24.60;99.90;;;;;;5091940;27;20195;-76
2023/04/16 03:41:19;;;;;;;3.13;1.45;;;24.70;99.90;;;;;;5093824;27;20560;-76
2023/04/16 03:43:50;;;;;;;3.28;1.30;;;24.60;99.90;;;;;;5095986;28;20201;-75
2023/04/16 03:46:21;;;;;;;2.92;1.40;;;24.60;99.90;;;;;;5098923;28;20195;-75
2023/04/16 03:48:52;;;;;;;2.70;1.20;;;24.70;99.90;;;;;;5101653;27;20218;-76
2023/04/16 03:51:23;;;;;;;1.77;1.00;;;24.70;99.90;;;;;;5101521;27;20562;-77
2023/04/16 03:53:56;;;;;;;2.55;1.25;;;24.80;99.90;;;;;;5105579;28;21403;-76
2023/04/16 03:56:28;;;;;;;1.33;0.93;;;24.80;99.90;;;;;;5096920;27;20212;-76
2023/04/16 03:58:59;;;;;;;3.03;1.00;;;24.90;99.90;;;;;;5094074;27;20510;-76
2023/04/16 04:01:30;;;;;;;5.25;1.00;;;24.80;99.90;;;;;;5094796;27;20229;-76
2023/04/16 04:04:01;;;;;;;2.85;1.00;;;24.80;99.90;;;;;;5095844;27;20201;-75
2023/04/16 04:06:33;;;;;;;0.70;0.70;;;24.80;99.90;;;;;;5095767;27;20198;-76
2023/04/16 04:09:06;;;;;;;4.70;0.90;;;24.80;99.90;;;;;;5102541;27;20737;-75
2023/04/16 04:11:37;;;;;;;4.90;0.80;;;24.80;99.90;;;;;;5103424;27;20202;-76
2023/04/16 04:14:08;;;;;;;2.65;0.80;;;24.80;99.90;;;;;;5101425;27;20936;-76
2023/04/16 04:16:39;;;;;;;4.70;0.60;;;24.80;99.90;;;;;;5093683;28;20205;-75
2023/04/16 04:19:12;;;;;;;3.60;0.77;;;24.90;99.90;;;;;;5094711;28;20202;-75
2023/04/16 04:21:43;;;;;;;1.30;0.60;;;25.10;99.90;;;;;;5093453;27;20226;-75
2023/04/16 04:24:16;;;;;;;1.02;0.50;;;25.10;99.90;;;;;;5090756;28;20218;-75
2023/04/16 04:26:47;;;;;;;1.70;0.50;;;25.00;99.90;;;;;;5092574;28;20199;-75
2023/04/16 04:29:18;;;;;;;3.85;0.52;;;25.10;99.90;;;;;;5099712;27;20200;-75
2023/04/16 04:31:49;;;;;;;1.30;0.50;;;25.10;99.90;;;;;;5093618;27;20206;-75
2023/04/16 04:34:21;;;;;;;4.28;1.58;;;25.10;99.90;;;;;;5096666;27;20198;-75
2023/04/16 04:36:52;;;;;;;1.17;0.40;;;25.00;99.00;;;;;;5095608;27;20549;-75
2023/04/16 04:39:25;;;;;;;1.15;0.40;;;25.00;98.30;;;;;;5096061;27;20225;-74
2023/04/16 04:41:56;;;;;;;0.95;0.50;;;25.10;96.30;;;;;;5095386;27;20230;-75
2023/04/16 04:44:27;;;;;;;2.47;0.98;;;25.00;90.70;;;;;;5097850;27;20206;-75
2023/04/16 04:46:58;;;;;;;1.77;1.08;;;24.90;83.30;;;;;;5107498;27;20217;-75
2023/04/16 04:49:30;;;;;;;0.82;0.52;;;25.00;80.60;;;;;;5104099;27;20203;-74
2023/04/16 04:52:01;;;;;;;0.63;0.30;;;25.00;78.40;;;;;;5093372;27;20217;-76
2023/04/16 04:54:34;;;;;;;1.48;0.82;;;25.00;75.30;;;;;;5099387;27;20797;-76
2023/04/16 04:57:05;;;;;;;2.10;0.47;;;25.10;74.20;;;;;;5104651;27;20202;-75
2023/04/16 04:59:37;;;;;;;1.00;0.50;;;25.20;71.70;;;;;;5101941;27;20201;-75
2023/04/16 05:02:08;;;;;;;1.08;0.60;;;25.20;68.80;;;;;;5104445;27;20213;-75
2023/04/16 05:04:39;;;;;;;0.85;0.30;;;25.20;68.10;;;;;;5099066;27;20205;-75
2023/04/16 05:07:10;;;;;;;0.55;0.28;;;25.20;64.80;;;;;;5098418;27;20213;-76
2023/04/16 05:09:45;;;;;;;0.63;0.20;;;25.20;64.20;;;;;;5093962;27;20253;-75
2023/04/16 05:12:16;;;;;;;0.98;0.20;;;25.10;65.10;;;;;;5095709;27;20209;-75
2023/04/16 05:14:47;;;;;;;0.35;0.20;;;25.20;63.60;;;;;;5096302;27;21974;-75
2023/04/16 05:17:18;;;;;;;0.52;0.30;;;25.30;63.90;;;;;;5095535;27;20592;-76
2023/04/16 05:19:49;;;;;;;0.50;0.30;;;25.30;63.90;;;;;;5097506;27;20579;-76
2023/04/16 05:22:20;;;;;;;1.02;0.40;;;25.40;63.20;;;;;;5097279;27;20226;-75
2023/04/16 05:24:53;;;;;;;0.50;0.35;;;25.40;62.00;;;;;;5096325;27;20234;-75
2023/04/16 05:27:24;;;;;;;0.57;0.30;;;25.40;63.10;;;;;;5104815;27;20561;-75
2023/04/16 05:29:55;;;;;;;2.72;0.50;;;25.30;61.10;;;;;;5097470;27;21051;-75
2023/04/16 05:32:28;;;;;;;2.03;0.63;;;25.20;60.70;;;;;;5097521;27;20198;-76
2023/04/16 05:34:59;;;;;;;0.30;0.30;;;25.20;60.80;;;;;;5095688;27;20205;-76
2023/04/16 05:37:30;;;;;;;2.15;0.30;;;25.20;62.20;;;;;;5094867;27;20205;-75
2023/04/16 05:40:03;;;;;;;0.65;0.32;;;25.10;63.30;;;;;;5098826;27;20198;-75
2023/04/16 05:42:34;;;;;;;0.43;0.40;;;25.10;62.10;;;;;;5105714;27;20236;-76
2023/04/16 05:45:06;;;;;;;1.23;0.43;;;25.00;61.80;;;;;;5106680;27;20199;-75
2023/04/16 05:47:37;;;;;;;0.65;0.40;;;24.70;61.40;;;;;;5112994;27;20211;-75
2023/04/16 05:50:09;;;;;;;0.20;0.20;;;24.40;61.60;;;;;;5101717;27;20194;-75
2023/04/16 05:52:40;;;;;;;0.60;0.30;;;24.40;62.50;;;;;;5108816;27;20220;-74
2023/04/16 05:55:13;;;;;;;1.02;0.20;;;24.50;64.00;;;;;;5103397;27;20568;-75
2023/04/16 05:57:44;;;;;;;0.85;0.35;;;24.60;62.90;;;;;;5101102;27;20198;-76
2023/04/16 06:00:16;;;;;;;0.45;0.40;;;24.70;62.60;;;;;;5098302;27;20198;-75
2023/04/16 06:02:47;;;;;;;0.30;0.28;;;24.70;62.70;;;;;;5096636;27;20253;-76
2023/04/16 06:05:19;;;;;;;0.32;0.30;;;24.70;63.80;;;;;;5095594;27;20846;-76
2023/04/16 06:07:50;;;;;;;0.43;0.20;;;24.80;63.20;;;;;;5096501;27;20201;-78
2023/04/16 06:10:25;;;;;;;0.30;0.30;;;24.70;61.70;;;;;;5097617;27;20568;-76
2023/04/16 06:12:56;;;;;;;0.38;0.38;;;24.80;61.80;;;;;;5096818;27;20702;-76
2023/04/16 06:15:27;;;;;;;0.60;0.30;;;24.70;61.60;;;;;;5094185;27;20696;-76
2023/04/16 06:17:58;;;;;;;0.52;0.20;;;24.70;61.50;;;;;;5096964;27;20681;-76
2023/04/16 06:20:30;;;;;;;0.43;0.22;;;24.80;61.00;;;;;;5096827;27;22227;-76
2023/04/16 06:23:01;;;;;;;0.50;0.10;;;24.80;61.10;;;;;;5095495;27;20225;-76
2023/04/16 06:25:34;;;;;;;0.82;0.30;;;24.70;60.50;;;;;;5097769;27;20226;-76
2023/04/16 06:28:05;;;;;;;0.40;0.40;;;24.50;61.20;;;;;;5096352;27;20198;-76
2023/04/16 06:30:36;;;;;;;2.38;2.17;;;24.60;61.20;;;;;;5094777;27;20209;-76
2023/04/16 06:33:07;;;;;;;1.45;0.25;;;24.70;62.30;;;;;;5094599;27;20209;-76
2023/04/16 06:35:39;;;;;;;2.50;0.77;;;24.60;60.90;;;;;;5097593;27;20680;-77
2023/04/16 06:38:10;;;;;;;0.40;0.40;;;24.50;62.10;;;;;;5094761;27;20205;-77
2023/04/16 06:40:43;;;;;;;1.08;0.98;;;24.30;61.90;;;;;;5095269;27;20202;-76
2023/04/16 06:43:14;;;;;;;0.50;0.17;;;24.50;61.90;;;;;;5101425;27;20307;-76
2023/04/16 06:45:45;;;;;;;0.68;0.30;;;24.20;61.90;;;;;;5112033;27;20198;-76
2023/04/16 06:48:16;;;;;;;1.35;0.40;;;24.20;62.90;;;;;;5098043;27;20232;-76
2023/04/16 06:50:47;;;;;;;2.30;0.50;;;24.10;62.70;;;;;;5095334;27;20209;-76
2023/04/16 06:53:19;;;;;;;1.15;0.73;;;24.10;63.20;;;;;;5092848;27;20198;-76
2023/04/16 06:55:52;;;;;;;0.75;0.75;;;23.90;62.80;;;;;;5098087;27;20233;-77
2023/04/16 06:58:23;;;;;;;1.63;1.20;;;23.90;60.80;;;;;;5098832;27;20194;-74
2023/04/16 07:00:54;;;;;;;1.33;1.00;;;23.70;60.80;;;;;;5099326;27;21663;-76
2023/04/16 07:03:27;;;;;;;0.65;0.65;;;23.50;59.70;;;;;;5097300;27;20219;-75
2023/04/16 07:05:58;;;;;;;0.63;0.60;;;23.40;59.10;;;;;;5099040;27;20195;-74
2023/04/16 07:08:29;;;;;;;0.95;0.90;;;23.30;59.00;;;;;;5099053;27;20199;-75
2023/04/16 07:11:02;;;;;;;1.38;1.27;;;23.20;58.90;;;;;;5097070;27;20191;-76
2023/04/16 07:13:34;;;;;;;2.55;1.60;;;23.10;58.90;;;;;;5098342;27;20213;-76
2023/04/16 07:16:05;;;;;;;0.60;0.60;;;23.10;58.90;;;;;;5096428;27;20201;-75
2023/04/16 07:18:36;;;;;;;0.70;0.50;;;22.90;57.70;;;;;;5096724;27;20198;-76
2023/04/16 07:21:07;;;;;;;1.25;0.50;;;22.80;58.70;;;;;;5096166;27;20577;-76
2023/04/16 07:23:39;;;;;;;1.10;1.00;;;22.90;57.90;;;;;;5095783;27;20354;-76
2023/04/16 07:26:12;;;;;;;0.47;0.40;;;22.80;58.20;;;;;;5096161;27;20198;-75
2023/04/16 07:28:43;;;;;;;0.70;0.47;;;22.70;58.40;;;;;;5096675;27;20281;-76
2023/04/16 07:31:14;;;;;;;1.10;0.75;;;22.70;58.60;;;;;;5100406;27;20194;-76
2023/04/16 07:33:45;;;;;;;0.55;0.40;;;22.50;58.60;;;;;;5094863;27;20202;-75
2023/04/16 07:36:16;;;;;;;0.65;0.50;;;22.40;58.80;;;;;;5095517;27;20244;-76
2023/04/16 07:38:47;;;;;;;0.50;0.50;;;22.40;59.00;;;;;;5097900;27;21183;-75
2023/04/16 07:41:20;;;;;;;0.40;0.40;;;22.40;59.40;;;;;;5094841;27;20217;-76
2023/04/16 07:43:52;;;;;;;0.63;0.52;;;22.30;59.10;;;;;;5096673;27;20226;-76
2023/04/16 07:46:23;;;;;;;1.67;1.58;;;22.20;59.70;;;;;;5095936;28;20202;-76
2023/04/16 07:48:54;;;;;;;0.95;0.70;;;22.20;60.60;;;;;;5108154;28;20221;-75
2023/04/16 07:51:25;;;;;;;3.85;3.47;;;22.20;60.70;;;;;;5124800;28;20190;-76
2023/04/16 07:53:56;;;;;;;13.43;12.13;;;22.20;60.70;;;;;;5129378;28;20193;-75
2023/04/16 07:56:29;;;;;;;2.17;0.80;;;22.20;60.50;;;;;;5130068;27;20205;-75
2023/04/16 07:59:03;;;;;;;1.30;0.80;;;22.20;60.40;;;;;;5125627;27;20186;-73
2023/04/16 08:01:34;;;;;;;2.70;1.35;;;22.10;60.90;;;;;;5130291;27;20198;-75
2023/04/16 08:04:06;;;;;;;2.90;1.20;;;22.10;61.30;;;;;;5126026;27;20313;-76
2023/04/16 08:06:37;;;;;;;1.13;0.80;;;22.10;61.80;;;;;;5123925;27;20225;-76
2023/04/16 08:09:08;;;;;;;1.23;0.70;;;22.00;61.70;;;;;;5124177;27;20536;-75
2023/04/16 08:11:43;;;;;;;2.47;0.82;;;21.80;60.70;;;;;;5130380;27;20205;-77
2023/04/16 08:14:14;;;;;;;1.40;0.82;;;21.80;61.60;;;;;;5133040;27;20197;-75
2023/04/16 08:16:45;;;;;;;0.82;0.47;;;21.70;59.90;;;;;;5135895;27;20247;-77
2023/04/16 08:19:16;;;;;;;0.88;0.50;;;21.70;60.10;;;;;;5132133;27;20198;-77
2023/04/16 08:21:47;;;;;;;2.45;0.95;;;21.70;58.80;;;;;;5117076;27;20197;-77
2023/04/16 08:24:20;;;;;;;4.55;2.30;;;21.70;58.60;;;;;;5130131;27;20238;-76
2023/04/16 08:26:53;;;;;;;0.60;0.50;;;21.60;59.00;;;;;;5133694;27;20189;-76
2023/04/16 08:29:25;;;;;;;4.32;1.95;;;21.70;59.00;;;;;;5134043;27;20194;-76
2023/04/16 08:31:57;;;;;;;1.55;1.00;;;21.70;59.10;;;;;;5129506;27;20243;-76
2023/04/16 08:34:28;;;;;;;2.67;1.45;;;21.70;59.50;;;;;;5134806;27;20202;-76
2023/04/16 08:36:59;;;;;;;2.97;1.90;;;21.70;59.70;;;;;;5134390;27;20194;-76
2023/04/16 08:39:30;;;;;;;4.72;3.90;;;21.70;59.30;;;;;;5131085;27;20190;-76
2023/04/16 08:42:06;;;;;;;9.48;6.13;;;21.70;59.70;;;;;;5123660;27;20563;-75
2023/04/16 08:44:39;;;;;;;1.10;1.00;;;21.70;60.00;;;;;;5133689;27;20221;-76
2023/04/16 08:47:14;;;;;;;1.52;0.85;;;21.70;60.50;;;;;;5134206;27;20711;-77
2023/04/16 08:49:47;;;;;;;2.35;1.92;;;21.60;60.40;;;;;;5132432;27;20200;-75
2023/04/16 08:52:20;;;;;;;2.42;2.22;;;21.60;61.20;;;;;;5134134;27;20197;-76
2023/04/16 08:54:58;;;;;;;5.93;3.35;;;21.50;61.80;;;;;;5127029;27;20229;-76
2023/04/16 08:57:39;;;;;;;1.83;0.80;;;21.50;62.20;;;;;;5131057;27;20247;-76
2023/04/16 09:00:11;;;;;;;4.20;2.33;;;21.40;61.70;;;;;;5133898;27;20189;-77
2023/04/16 09:02:42;;;;;;;3.47;1.40;;;21.40;62.60;;;;;;5132949;27;20201;-77
2023/04/16 09:05:18;;;;;;;3.45;2.30;;;21.40;62.60;;;;;;5134490;27;20306;-78
2023/04/16 09:07:50;;;;;;;5.50;3.20;;;21.40;63.60;;;;;;5136786;27;20676;-78
2023/04/16 09:10:21;;;;;;;7.97;3.58;;;21.40;63.00;;;;;;5132544;27;20194;-77
2023/04/16 09:12:58;;;;;;;1.05;0.95;;;21.40;64.20;;;;;;5118976;27;20195;-77
2023/04/16 09:15:30;;;;;;;2.00;1.60;;;21.40;63.10;;;;;;5125139;27;20550;-77
2023/04/16 09:18:01;;;;;;;2.35;1.20;;;21.40;63.10;;;;;;5134935;27;20190;-78
2023/04/16 09:20:32;;;;;;;1.35;1.00;;;21.40;62.50;;;;;;5136839;27;20280;-77
2023/04/16 09:23:03;;;;;;;2.08;1.40;;;21.30;62.60;;;;;;5134543;27;20288;-77
2023/04/16 09:25:37;;;;;;;2.80;1.08;;;21.30;63.20;;;;;;5133000;27;20221;-77
2023/04/16 09:28:10;;;;;;;1.42;0.90;;;21.30;63.20;;;;;;5131036;27;20202;-78
2023/04/16 09:30:41;;;;;;;1.48;0.90;;;21.20;64.10;;;;;;5125191;27;20349;-78
2023/04/16 09:33:23;;;;;;;1.85;0.88;;;21.20;64.60;;;;;;5131301;27;20194;-78
2023/04/16 09:35:54;;;;;;;0.90;0.70;;;21.20;65.90;;;;;;5125631;27;20641;-77
2023/04/16 09:38:25;;;;;;;1.23;0.90;;;21.20;64.80;;;;;;5127767;27;20199;-78
2023/04/16 09:41:12;;;;;;;3.22;1.40;;;21.20;64.00;;;;;;5134247;27;20198;-79
2023/04/16 09:44:00;;;;;;;0.88;0.55;;;21.10;64.60;;;;;;5127332;27;20775;-77
2023/04/16 09:46:36;;;;;;;2.95;0.50;;;21.10;64.00;;;;;;5132986;27;20190;-79
2023/04/16 09:49:12;;;;;;;0.82;0.60;;;21.10;64.30;;;;;;5115478;27;20220;-77
2023/04/16 09:51:44;;;;;;;0.52;0.52;;;21.10;65.70;;;;;;5123750;27;20197;-78
2023/04/16 09:54:15;;;;;;;1.42;0.90;;;21.10;65.20;;;;;;5125958;27;20193;-78
2023/04/16 09:56:47;;;;;;;1.17;1.00;;;21.10;65.70;;;;;;5128659;27;20212;-77
2023/04/16 09:59:24;;;;;;;0.60;0.60;;;21.10;66.10;;;;;;5135808;27;20208;-77
2023/04/16 10:02:02;;;;;;;1.05;0.70;;;21.00;67.10;;;;;;5135412;27;20197;-77
2023/04/16 10:04:42;;;;;;;1.08;0.63;;;21.00;67.90;;;;;;5120590;27;20224;-78
2023/04/16 10:07:13;;;;;;;1.23;0.60;;;21.10;67.70;;;;;;5114691;28;20255;-78
2023/04/16 10:09:44;;;;;;;1.40;0.60;;;21.00;69.10;;;;;;5132069;27;20220;-77
2023/04/16 10:12:16;;;;;;;1.05;0.93;;;21.00;69.20;;;;;;5133827;27;20210;-77
2023/04/16 10:14:49;;;;;;;2.35;0.88;;;20.90;69.00;;;;;;5134462;27;20209;-78
2023/04/16 10:17:21;;;;;;;1.38;0.60;;;20.80;68.90;;;;;;5135658;27;20213;-76
2023/04/16 10:19:52;;;;;;;1.38;0.63;;;20.90;69.40;;;;;;5122999;27;20194;-77
2023/04/16 10:22:23;;;;;;;1.20;0.90;;;20.80;70.20;;;;;;5119028;27;20202;-77
2023/04/16 10:24:55;;;;;;;6.68;5.97;;;20.80;70.20;;;;;;5125015;27;20908;-77
2023/04/16 10:27:28;;;;;;;2.80;2.60;;;20.80;70.20;;;;;;5125701;27;20204;-78
2023/04/16 10:30:02;;;;;;;1.10;0.70;;;20.80;70.00;;;;;;5122399;27;20210;-77
2023/04/16 10:32:33;;;;;;;1.05;0.80;;;20.60;71.10;;;;;;5120782;27;20190;-77
2023/04/16 10:35:08;;;;;;;1.70;0.50;;;20.60;71.90;;;;;;5121630;27;20201;-78
2023/04/16 10:37:44;;;;;;;0.75;0.47;;;20.40;73.00;;;;;;5129161;27;20207;-78
2023/04/16 10:40:29;;;;;;;0.90;0.40;;;20.50;73.40;;;;;;5142825;27;20198;-78
2023/04/16 10:43:01;;;;;;;0.90;0.50;;;20.50;73.60;;;;;;5127180;27;20199;-78
2023/04/16 10:45:40;;;;;;;1.30;0.40;;;20.50;73.70;;;;;;5136178;27;20190;-78
2023/04/16 10:48:13;;;;;;;1.10;0.47;;;20.50;74.40;;;;;;5143132;27;20198;-77
2023/04/16 10:50:44;;;;;;;1.10;0.50;;;20.50;74.90;;;;;;5133546;27;20611;-77
2023/04/16 10:53:24;;;;;;;1.88;0.68;;;20.50;74.70;;;;;;5130298;27;20202;-77
2023/04/16 10:56:16;;;;;;;1.50;0.43;;;20.30;75.40;;;;;;5121533;27;20195;-76
2023/04/16 10:58:47;;;;;;;1.10;0.50;;;20.30;76.00;;;;;;5120596;27;20201;-76
2023/04/16 11:01:20;;;;;;;0.47;0.40;;;20.20;76.10;;;;;;5130896;27;20585;-77
2023/04/16 11:03:51;;;;;;;0.73;0.35;;;20.30;77.10;;;;;;5123996;27;20592;-76
2023/04/16 11:06:28;;;;;;;0.65;0.50;;;20.30;77.10;;;;;;5131752;27;20208;-77
2023/04/16 11:08:59;;;;;;;0.40;0.32;;;20.30;77.30;;;;;;5119309;27;20300;-77
2023/04/16 11:11:39;;;;;;;0.75;0.38;;;20.30;77.80;;;;;;5127090;27;20209;-76
2023/04/16 11:14:13;;;;;;;0.95;0.40;;;20.20;78.60;;;;;;5127471;27;20280;-78
2023/04/16 11:16:46;;;;;;;0.50;0.30;;;20.20;78.70;;;;;;5129775;27;20193;-77
2023/04/16 11:19:20;;;;;;;0.40;0.30;;;20.30;78.30;;;;;;5130682;27;20557;-77
2023/04/16 11:21:52;;;;;;;0.47;0.30;;;20.10;79.70;;;;;;5118044;27;20191;-77
2023/04/16 11:24:24;;;;;;;1.13;0.30;;;20.10;80.50;;;;;;5124781;27;20604;-77
2023/04/16 11:26:55;;;;;;;1.00;0.35;;;20.10;81.10;;;;;;5130545;27;20209;-77
2023/04/16 11:29:26;;;;;;;0.77;0.43;;;20.10;82.20;;;;;;5129350;27;20197;-76
2023/04/16 11:31:59;;;;;;;1.95;0.60;;;20.20;82.90;;;;;;5125848;27;20201;-77
2023/04/16 11:34:30;;;;;;;0.60;0.43;;;20.20;83.70;;;;;;5126937;27;20652;-76
2023/04/16 11:37:02;;;;;;;0.80;0.38;;;20.10;83.60;;;;;;5121282;27;20190;-79
2023/04/16 11:39:33;;;;;;;0.45;0.43;;;20.10;84.00;;;;;;5126262;27;20213;-78
2023/04/16 11:42:04;;;;;;;0.28;0.28;;;20.10;84.90;;;;;;5128735;27;20193;-78
2023/04/16 11:44:35;;;;;;;0.40;0.40;;;20.10;84.10;;;;;;5130118;27;20225;-77
2023/04/16 11:47:09;;;;;;;0.77;0.40;;;20.00;84.60;;;;;;5111662;28;20204;-78
2023/04/16 11:49:40;;;;;;;0.50;0.40;;;20.00;85.50;;;;;;5115598;28;20213;-78
2023/04/16 11:52:11;;;;;;;2.72;0.52;;;19.90;86.60;;;;;;5128547;28;20216;-78
2023/04/16 11:54:42;;;;;;;1.45;0.70;;;19.80;87.10;;;;;;5125580;27;20205;-78
2023/04/16 11:57:14;;;;;;;0.95;0.50;;;19.80;88.20;;;;;;5127451;27;20201;-76
2023/04/16 11:59:49;;;;;;;0.93;0.60;;;19.70;89.40;;;;;;5127358;27;20198;-77
2023/04/16 12:02:40;;;;;;;0.82;0.50;;;19.70;89.20;;;;;;5131502;27;20201;-77
2023/04/16 12:05:29;;;;;;;0.75;0.55;;;19.70;90.00;;;;;;5131678;27;20337;-78
2023/04/16 12:08:01;;;;;;;0.65;0.45;;;19.70;90.30;;;;;;5128172;27;20213;-78
2023/04/16 12:10:33;;;;;;;1.13;0.50;;;19.60;90.80;;;;;;5124323;27;20201;-77
2023/04/16 12:13:15;;;;;;;0.95;0.57;;;19.60;90.80;;;;;;5127119;28;20193;-77
2023/04/16 12:15:50;;;;;;;0.70;0.68;;;19.50;91.70;;;;;;5125038;28;20194;-77
2023/04/16 12:18:25;;;;;;;0.75;0.63;;;19.50;92.30;;;;;;5129970;27;20208;-77
2023/04/16 12:20:56;;;;;;;0.70;0.60;;;19.50;93.00;;;;;;5131071;27;20272;-77
2023/04/16 12:23:28;;;;;;;0.85;0.70;;;19.40;93.30;;;;;;5126530;27;20202;-76
2023/04/16 12:26:01;;;;;;;1.95;0.70;;;19.60;93.60;;;;;;5127953;27;20348;-77
2023/04/16 12:28:33;;;;;;;2.42;0.73;;;19.50;93.70;;;;;;5128543;27;20243;-76
2023/04/16 12:31:05;;;;;;;0.93;0.65;;;19.50;93.20;;;;;;5128124;28;20194;-76
2023/04/16 12:33:38;;;;;;;1.25;0.60;;;19.50;94.00;;;;;;5123724;27;20205;-77
2023/04/16 12:36:21;;;;;;;2.60;0.80;;;19.40;94.20;;;;;;5123642;27;20675;-76
2023/04/16 12:38:52;;;;;;;1.25;0.60;;;19.30;94.50;;;;;;5122431;28;20197;-76
2023/04/16 12:41:23;;;;;;;0.93;0.50;;;19.20;95.30;;;;;;5127751;27;20205;-74
2023/04/16 12:43:54;;;;;;;0.77;0.60;;;19.10;96.40;;;;;;5129249;27;20240;-75
2023/04/16 12:46:25;;;;;;;2.75;0.70;;;19.20;97.10;;;;;;5117048;28;20202;-76
2023/04/16 12:48:58;;;;;;;0.75;0.50;;;19.20;98.20;;;;;;5119760;28;20648;-76
2023/04/16 12:51:29;;;;;;;2.50;0.55;;;19.20;99.00;;;;;;5131310;27;20239;-77
2023/04/16 12:54:01;;;;;;;1.20;0.70;;;19.30;99.60;;;;;;5135089;27;20197;-75
2023/04/16 12:56:32;;;;;;;0.90;0.50;;;19.30;99.90;;;;;;5131663;27;20197;-76
2023/04/16 12:59:03;;;;;;;0.95;0.50;;;19.20;99.90;;;;;;5132659;27;20194;-76
2023/04/16 13:01:35;;;;;;;1.15;0.47;;;19.20;99.90;;;;;;5128824;27;20186;-76
2023/04/16 13:04:09;;;;;;;0.80;0.50;;;19.20;99.90;;;;;;5130148;27;20684;-77
2023/04/16 13:06:40;;;;;;;0.45;0.40;;;19.20;99.90;;;;;;5130996;27;20598;-76
2023/04/16 13:09:11;;;;;;;0.28;0.28;;;19.10;99.90;;;;;;5130711;27;20225;-76
2023/04/16 13:11:42;;;;;;;0.95;0.40;;;19.10;99.90;;;;;;5125271;27;20217;-75
2023/04/16 13:14:13;;;;;;;0.70;0.40;;;18.90;99.90;;;;;;5129979;27;20209;-74